Time;durP1;ratioP1;P1;durP2;ratioP2;P2;SDS_P1;SDS_P2;PMS_P1;PMS_P2;Temp;Humidity;BMP_temperature;BMP_pressure;BME280_temperature;BME280_humidity;BME280_pressure;Samples;Min_cycle;Max_cycle;Signal;HPM_P1;HPM_P2
2023/08/21 00:01:30;;;;;;;3.07;2.80;;;25.10;99.90;;;;;;4903652;29;20470;-61
2023/08/21 00:03:57;;;;;;;3.60;3.10;;;25.10;99.90;;;;;;4904458;29;20470;-60
2023/08/21 00:06:23;;;;;;;3.70;3.40;;;25.10;99.90;;;;;;4906779;29;20978;-60
2023/08/21 00:08:50;;;;;;;3.30;3.10;;;25.10;99.90;;;;;;4908358;29;20467;-60
2023/08/21 00:11:18;;;;;;;3.70;2.93;;;25.10;99.90;;;;;;4907238;29;20941;-60
2023/08/21 00:13:47;;;;;;;3.73;3.30;;;25.10;99.90;;;;;;4905899;29;21077;-60
2023/08/21 00:16:14;;;;;;;3.27;2.97;;;25.10;99.90;;;;;;4907444;29;20485;-60
2023/08/21 00:18:41;;;;;;;3.73;3.00;;;25.10;99.90;;;;;;4904670;29;20477;-60
2023/08/21 00:21:08;;;;;;;5.90;3.50;;;25.10;99.90;;;;;;4904530;29;20824;-60
2023/08/21 00:23:34;;;;;;;4.97;3.87;;;25.10;99.90;;;;;;4906580;29;20877;-60
2023/08/21 00:26:01;;;;;;;2.67;2.47;;;25.10;99.90;;;;;;4900381;29;20460;-60
2023/08/21 00:28:32;;;;;;;3.43;3.10;;;25.10;99.90;;;;;;4906657;29;20497;-60
2023/08/21 00:31:01;;;;;;;3.27;2.97;;;25.10;99.90;;;;;;4900138;29;20479;-60
2023/08/21 00:33:28;;;;;;;3.57;3.23;;;25.10;99.90;;;;;;4906164;29;20458;-61
2023/08/21 00:35:55;;;;;;;4.17;3.33;;;25.10;99.90;;;;;;4909210;29;20463;-60
2023/08/21 00:38:22;;;;;;;2.83;2.63;;;25.10;99.90;;;;;;4908735;29;20473;-60
2023/08/21 00:40:49;;;;;;;3.23;3.03;;;25.10;99.90;;;;;;4910584;29;20477;-60
2023/08/21 00:43:16;;;;;;;3.13;2.60;;;25.10;99.90;;;;;;4908908;29;20458;-60
2023/08/21 00:45:45;;;;;;;3.33;3.03;;;25.10;99.90;;;;;;4905212;29;20459;-60
2023/08/21 00:48:12;;;;;;;2.93;2.63;;;25.00;99.90;;;;;;4907024;29;20464;-60
2023/08/21 00:50:41;;;;;;;3.27;3.00;;;25.00;99.90;;;;;;4910208;29;20482;-61
2023/08/21 00:53:07;;;;;;;3.73;2.83;;;25.00;99.90;;;;;;4907050;29;20969;-60
2023/08/21 00:55:35;;;;;;;3.23;2.73;;;25.00;99.90;;;;;;4908560;29;20474;-60
2023/08/21 00:58:03;;;;;;;3.20;3.00;;;25.00;99.90;;;;;;4908701;29;21450;-61
2023/08/21 01:00:30;;;;;;;3.50;3.20;;;25.00;99.90;;;;;;4909901;29;20475;-60
2023/08/21 01:02:58;;;;;;;3.13;2.73;;;25.00;99.90;;;;;;4923290;23;20435;-54
2023/08/21 01:05:25;;;;;;;2.87;2.67;;;25.00;99.90;;;;;;4908282;29;21028;-49
2023/08/21 01:08:00;;;;;;;3.10;2.90;;;25.00;99.90;;;;;;4904794;29;20468;-49
2023/08/21 01:10:43;;;;;;;3.70;3.40;;;25.00;99.90;;;;;;4908083;29;21250;-51
2023/08/21 01:13:20;;;;;;;2.90;2.60;;;25.00;99.90;;;;;;4908971;29;20470;-50
2023/08/21 01:15:49;;;;;;;3.63;3.23;;;25.00;99.90;;;;;;4906477;29;20495;-49
2023/08/21 01:18:18;;;;;;;2.60;2.40;;;25.00;99.90;;;;;;4910396;29;20476;-50
2023/08/21 01:20:45;;;;;;;3.30;3.03;;;25.00;99.90;;;;;;4909462;29;20514;-50
2023/08/21 01:23:33;;;;;;;4.03;2.67;;;25.00;99.90;;;;;;4908113;29;20463;-52
2023/08/21 01:26:00;;;;;;;3.90;3.50;;;25.00;99.90;;;;;;4907745;29;20981;-50
2023/08/21 01:28:27;;;;;;;3.43;3.13;;;25.00;99.90;;;;;;4904142;29;20832;-48
2023/08/21 01:31:04;;;;;;;3.50;3.20;;;25.00;99.90;;;;;;4905309;29;21021;-48
2023/08/21 01:33:34;;;;;;;5.10;4.03;;;25.00;99.90;;;;;;4909266;29;20459;-53
2023/08/21 01:36:04;;;;;;;2.87;2.67;;;25.00;99.90;;;;;;4910762;29;20480;-49
2023/08/21 01:38:35;;;;;;;2.90;2.43;;;25.00;99.90;;;;;;4908598;29;20494;-49
2023/08/21 01:41:02;;;;;;;2.90;2.70;;;25.00;99.90;;;;;;4909908;29;20768;-50
2023/08/21 01:43:28;;;;;;;3.27;3.03;;;25.00;99.90;;;;;;4911949;29;20502;-49
2023/08/21 01:45:55;;;;;;;2.73;2.40;;;25.00;99.90;;;;;;4911763;29;20475;-50
2023/08/21 01:48:22;;;;;;;3.57;2.70;;;25.00;99.90;;;;;;4905506;29;20944;-52
2023/08/21 01:50:49;;;;;;;3.73;2.90;;;25.00;99.90;;;;;;4906222;29;20952;-48
2023/08/21 01:53:16;;;;;;;3.03;2.83;;;25.00;99.90;;;;;;4906859;29;20468;-52
2023/08/21 01:55:44;;;;;;;3.50;2.60;;;25.00;99.90;;;;;;4909245;29;21084;-49
2023/08/21 01:58:10;;;;;;;3.53;3.20;;;24.90;99.90;;;;;;4908527;29;20771;-49
2023/08/21 02:00:37;;;;;;;3.43;2.60;;;24.90;99.90;;;;;;4905464;29;20815;-52
2023/08/21 02:03:04;;;;;;;2.77;2.57;;;25.00;99.90;;;;;;4907502;29;20468;-50
2023/08/21 02:05:31;;;;;;;2.87;2.67;;;24.90;99.90;;;;;;4910063;29;21043;-53
2023/08/21 02:07:57;;;;;;;3.67;3.33;;;24.90;99.90;;;;;;4909092;29;20458;-51
2023/08/21 02:10:24;;;;;;;3.07;2.77;;;24.90;99.90;;;;;;4908880;29;20501;-53
2023/08/21 02:12:53;;;;;;;2.90;2.60;;;24.90;99.90;;;;;;4910754;29;20498;-53
2023/08/21 02:15:21;;;;;;;3.40;3.10;;;24.90;99.90;;;;;;4904397;29;20880;-53
2023/08/21 02:17:48;;;;;;;2.70;2.50;;;24.90;99.90;;;;;;4905323;29;20731;-50
2023/08/21 02:20:15;;;;;;;3.37;3.07;;;24.90;99.90;;;;;;4905964;29;20472;-48
2023/08/21 02:22:42;;;;;;;3.10;2.90;;;24.90;99.90;;;;;;4903063;29;20474;-49
2023/08/21 02:25:09;;;;;;;3.20;3.00;;;24.90;99.90;;;;;;4904364;29;20467;-48
2023/08/21 02:27:36;;;;;;;3.13;2.93;;;24.90;99.90;;;;;;4905910;29;20766;-47
2023/08/21 02:30:04;;;;;;;2.90;2.60;;;24.90;99.90;;;;;;4905658;29;20462;-49
2023/08/21 02:32:31;;;;;;;3.07;2.87;;;24.90;99.90;;;;;;4901436;29;20497;-52
2023/08/21 02:34:58;;;;;;;3.07;2.70;;;24.90;99.90;;;;;;4901792;29;20467;-53
2023/08/21 02:37:24;;;;;;;3.07;2.73;;;24.90;99.90;;;;;;4906084;29;20468;-53
2023/08/21 02:39:51;;;;;;;2.67;2.47;;;24.90;99.90;;;;;;4903862;29;20470;-52
2023/08/21 02:42:18;;;;;;;3.07;2.77;;;24.90;99.90;;;;;;4903809;29;20805;-48
2023/08/21 02:44:44;;;;;;;5.83;3.13;;;24.90;99.90;;;;;;4907521;29;20468;-50
2023/08/21 02:47:12;;;;;;;3.47;3.23;;;24.90;99.90;;;;;;4905651;29;20476;-51
2023/08/21 02:49:39;;;;;;;2.93;2.67;;;24.90;99.90;;;;;;4907199;29;20474;-52
2023/08/21 02:52:06;;;;;;;3.10;2.80;;;24.90;99.90;;;;;;4909372;29;21112;-49
2023/08/21 02:54:33;;;;;;;2.83;2.63;;;24.90;99.90;;;;;;4909886;29;20548;-50
2023/08/21 02:56:59;;;;;;;3.00;2.80;;;24.90;99.90;;;;;;4910091;29;20458;-51
2023/08/21 02:59:26;;;;;;;2.87;2.50;;;24.90;99.90;;;;;;4908895;29;20479;-52
2023/08/21 03:01:53;;;;;;;3.00;2.60;;;24.90;99.90;;;;;;4905334;29;20463;-49
2023/08/21 03:04:21;;;;;;;3.07;2.83;;;24.90;99.90;;;;;;4904473;29;20487;-49
2023/08/21 03:06:48;;;;;;;2.73;2.43;;;24.90;99.90;;;;;;4913933;29;20460;-50
2023/08/21 03:09:15;;;;;;;2.83;2.63;;;24.90;99.90;;;;;;4903970;29;20478;-51
2023/08/21 03:11:41;;;;;;;3.00;2.70;;;24.90;99.90;;;;;;4904025;29;20488;-51
2023/08/21 03:14:09;;;;;;;2.90;2.47;;;24.90;99.90;;;;;;4907285;29;20686;-50
2023/08/21 03:16:36;;;;;;;2.87;2.67;;;24.80;99.90;;;;;;4902527;29;23415;-52
2023/08/21 03:19:02;;;;;;;2.40;2.20;;;24.90;99.90;;;;;;4904062;29;20468;-50
2023/08/21 03:21:30;;;;;;;4.90;2.90;;;24.90;99.90;;;;;;4907609;29;20478;-49
2023/08/21 03:23:59;;;;;;;3.37;3.07;;;24.80;99.90;;;;;;4905945;29;20995;-52
2023/08/21 03:26:26;;;;;;;2.90;2.70;;;24.80;99.90;;;;;;4907196;29;20476;-52
2023/08/21 03:28:53;;;;;;;2.90;2.70;;;24.80;99.90;;;;;;4907206;29;20464;-48
2023/08/21 03:31:20;;;;;;;3.03;2.73;;;24.80;99.90;;;;;;4905907;29;20502;-49
2023/08/21 03:33:46;;;;;;;2.83;2.63;;;24.80;99.90;;;;;;4907945;29;20490;-49
2023/08/21 03:36:13;;;;;;;2.83;2.63;;;24.80;99.90;;;;;;4905286;29;20459;-48
2023/08/21 03:38:41;;;;;;;2.57;2.37;;;24.80;99.90;;;;;;4902773;29;20475;-48
2023/08/21 03:41:08;;;;;;;2.87;2.57;;;24.80;99.90;;;;;;4903814;29;20460;-48
2023/08/21 03:43:35;;;;;;;2.67;2.00;;;24.80;99.90;;;;;;4906611;29;21037;-52
2023/08/21 03:46:01;;;;;;;3.37;2.30;;;24.80;99.90;;;;;;4903277;29;20490;-49
2023/08/21 03:48:28;;;;;;;2.87;2.67;;;24.80;99.90;;;;;;4908800;29;20930;-47
2023/08/21 03:50:55;;;;;;;3.60;3.30;;;24.80;99.90;;;;;;4905741;29;20467;-53
2023/08/21 03:53:21;;;;;;;3.37;3.07;;;24.80;99.90;;;;;;4901168;29;20477;-48
2023/08/21 03:55:49;;;;;;;2.70;2.50;;;24.80;99.90;;;;;;4905799;29;20813;-51
2023/08/21 03:58:19;;;;;;;3.00;2.70;;;24.80;99.90;;;;;;4907582;29;20462;-50
2023/08/21 04:00:46;;;;;;;2.70;2.50;;;24.80;99.90;;;;;;4905772;29;20459;-52
2023/08/21 04:03:13;;;;;;;2.57;2.37;;;24.80;99.90;;;;;;4908842;29;20485;-48
2023/08/21 04:05:40;;;;;;;2.17;1.97;;;24.80;99.90;;;;;;4907297;29;20502;-53
2023/08/21 04:08:06;;;;;;;4.03;2.47;;;24.80;99.90;;;;;;4906687;29;20463;-52
2023/08/21 04:10:33;;;;;;;2.43;2.23;;;24.80;99.90;;;;;;4912286;29;20479;-50
2023/08/21 04:13:01;;;;;;;3.57;3.27;;;24.80;99.90;;;;;;4912134;29;20490;-49
2023/08/21 04:15:29;;;;;;;2.70;2.50;;;24.80;99.90;;;;;;4909849;29;20466;-49
2023/08/21 04:17:56;;;;;;;2.63;2.43;;;24.80;99.90;;;;;;4908807;29;20474;-49
2023/08/21 04:20:22;;;;;;;3.30;3.00;;;24.80;99.90;;;;;;4910418;29;20463;-49
2023/08/21 04:22:49;;;;;;;2.83;2.53;;;24.80;99.90;;;;;;4909754;29;20464;-52
2023/08/21 04:25:16;;;;;;;2.60;2.40;;;24.80;99.90;;;;;;4906383;29;20459;-49
2023/08/21 04:27:43;;;;;;;2.53;2.33;;;24.80;99.90;;;;;;4910686;29;20864;-50
2023/08/21 04:30:12;;;;;;;2.77;2.53;;;24.80;99.90;;;;;;4909230;29;20474;-51
2023/08/21 04:32:39;;;;;;;2.40;2.20;;;24.80;99.90;;;;;;4910230;29;20483;-48
2023/08/21 04:35:08;;;;;;;2.10;1.90;;;24.80;99.90;;;;;;4910182;29;20952;-49
2023/08/21 04:37:35;;;;;;;2.60;2.40;;;24.80;99.90;;;;;;4910729;29;20455;-52
2023/08/21 04:40:02;;;;;;;2.60;2.40;;;24.80;99.90;;;;;;4909833;29;20828;-51
2023/08/21 04:42:28;;;;;;;2.87;2.67;;;24.80;99.90;;;;;;4913264;29;20468;-49
2023/08/21 04:44:55;;;;;;;2.73;2.53;;;24.80;99.90;;;;;;4905808;29;20815;-53
2023/08/21 04:47:25;;;;;;;2.67;2.47;;;24.80;99.90;;;;;;4910690;29;20467;-49
2023/08/21 04:49:53;;;;;;;2.97;2.70;;;24.80;99.90;;;;;;4908353;29;20549;-48
2023/08/21 04:52:20;;;;;;;2.80;2.60;;;24.80;99.90;;;;;;4907366;29;20479;-48
2023/08/21 04:54:47;;;;;;;2.70;2.50;;;24.80;99.90;;;;;;4905419;29;20467;-52
2023/08/21 04:57:13;;;;;;;2.40;2.20;;;24.80;99.90;;;;;;4905419;29;20470;-50
2023/08/21 04:59:41;;;;;;;2.50;2.30;;;24.80;99.90;;;;;;4903239;29;20470;-50
2023/08/21 05:02:08;;;;;;;2.10;2.00;;;24.70;99.90;;;;;;4905465;29;20471;-52
2023/08/21 05:04:37;;;;;;;2.43;2.20;;;24.70;99.90;;;;;;4904683;29;22037;-50
2023/08/21 05:07:04;;;;;;;2.63;2.43;;;24.70;99.90;;;;;;4905148;29;20847;-49
2023/08/21 05:09:31;;;;;;;3.37;2.67;;;24.70;99.90;;;;;;4904198;29;20899;-48
2023/08/21 05:11:58;;;;;;;2.33;2.13;;;24.70;99.90;;;;;;4902260;29;20483;-51
2023/08/21 05:14:25;;;;;;;2.67;2.47;;;24.70;99.90;;;;;;4908079;29;20832;-48
2023/08/21 05:16:52;;;;;;;2.57;2.37;;;24.80;99.90;;;;;;4904407;29;20475;-52
2023/08/21 05:19:19;;;;;;;2.80;2.13;;;24.70;99.90;;;;;;4907443;29;20471;-49
2023/08/21 05:21:47;;;;;;;2.10;1.90;;;24.70;99.90;;;;;;4908558;29;20572;-51
2023/08/21 05:24:14;;;;;;;2.33;2.13;;;24.70;99.90;;;;;;4908168;29;20841;-50
2023/08/21 05:26:40;;;;;;;2.83;2.63;;;24.70;99.90;;;;;;4910028;29;20472;-52
2023/08/21 05:29:07;;;;;;;2.53;2.33;;;24.70;99.90;;;;;;4908993;29;20467;-50
2023/08/21 05:31:34;;;;;;;2.40;2.20;;;24.70;99.90;;;;;;4905225;29;20982;-51
2023/08/21 05:34:00;;;;;;;2.47;2.27;;;24.70;99.90;;;;;;4912076;29;20470;-49
2023/08/21 05:36:27;;;;;;;2.80;2.53;;;24.70;99.90;;;;;;4909778;29;21050;-49
2023/08/21 05:38:57;;;;;;;2.30;2.10;;;24.70;99.90;;;;;;4911678;29;20470;-50
2023/08/21 05:41:24;;;;;;;2.67;2.40;;;24.70;99.90;;;;;;4906380;29;20474;-49
2023/08/21 05:43:51;;;;;;;2.43;2.23;;;24.70;99.90;;;;;;4907645;29;20463;-53
2023/08/21 05:46:17;;;;;;;2.30;2.10;;;24.70;99.90;;;;;;4905007;29;20478;-51
2023/08/21 05:48:44;;;;;;;2.53;2.33;;;24.70;99.90;;;;;;4908560;29;20471;-50
2023/08/21 05:51:11;;;;;;;3.07;2.73;;;24.70;99.90;;;;;;4905327;29;20463;-50
2023/08/21 05:53:37;;;;;;;2.50;2.30;;;24.70;99.90;;;;;;4904636;29;20488;-53
2023/08/21 05:56:06;;;;;;;2.43;2.23;;;24.70;99.90;;;;;;4906131;29;20482;-49
2023/08/21 05:58:32;;;;;;;2.47;2.27;;;24.70;99.90;;;;;;4906314;29;20478;-50
2023/08/21 06:00:59;;;;;;;2.03;1.90;;;24.70;99.90;;;;;;4904657;29;20464;-50
2023/08/21 06:03:26;;;;;;;2.60;2.40;;;24.70;99.90;;;;;;4908645;29;20797;-54
2023/08/21 06:05:53;;;;;;;2.10;1.90;;;24.70;99.90;;;;;;4910636;29;20471;-50
2023/08/21 06:08:19;;;;;;;3.00;2.27;;;24.70;99.90;;;;;;4908420;29;20481;-50
2023/08/21 06:10:51;;;;;;;2.23;2.03;;;24.70;99.90;;;;;;4909749;29;20602;-53
2023/08/21 06:13:19;;;;;;;2.57;2.37;;;24.70;99.90;;;;;;4911008;29;20837;-47
2023/08/21 06:15:46;;;;;;;2.10;1.90;;;24.70;99.90;;;;;;4908401;29;20466;-53
2023/08/21 06:18:13;;;;;;;2.33;2.13;;;24.70;99.90;;;;;;4908940;29;20468;-49
2023/08/21 06:20:39;;;;;;;2.57;2.00;;;24.70;99.90;;;;;;4910362;29;20472;-50
2023/08/21 06:23:06;;;;;;;2.50;2.30;;;24.70;99.90;;;;;;4902948;29;20963;-53
2023/08/21 06:25:34;;;;;;;2.00;1.90;;;24.70;99.90;;;;;;4911886;29;20467;-49
2023/08/21 06:28:00;;;;;;;2.23;1.90;;;24.70;99.90;;;;;;4912509;29;20465;-50
2023/08/21 06:30:29;;;;;;;2.60;2.40;;;24.70;99.90;;;;;;4913505;29;21366;-49
2023/08/21 06:32:55;;;;;;;2.20;2.00;;;24.70;99.90;;;;;;4913432;29;20479;-50
2023/08/21 06:35:22;;;;;;;2.20;1.93;;;24.70;99.90;;;;;;4909340;29;20816;-52
2023/08/21 06:37:49;;;;;;;2.20;1.90;;;24.70;99.90;;;;;;4910052;29;20467;-48
2023/08/21 06:40:16;;;;;;;1.87;1.70;;;24.70;99.90;;;;;;4904320;29;20715;-49
2023/08/21 06:42:42;;;;;;;2.63;2.43;;;24.70;99.90;;;;;;4905434;29;20471;-52
2023/08/21 06:45:10;;;;;;;1.93;1.83;;;24.70;99.90;;;;;;4906222;29;20974;-47
2023/08/21 06:47:39;;;;;;;2.50;2.30;;;24.70;99.90;;;;;;4906987;29;20975;-52
2023/08/21 06:50:07;;;;;;;2.03;1.83;;;24.80;99.90;;;;;;4909531;29;20468;-52
2023/08/21 06:52:33;;;;;;;2.07;1.90;;;24.80;99.90;;;;;;4903472;29;20486;-48
2023/08/21 06:55:00;;;;;;;2.20;2.00;;;24.80;99.90;;;;;;4903057;29;20474;-49
2023/08/21 06:57:27;;;;;;;1.97;1.87;;;24.80;99.90;;;;;;4906034;29;20534;-51
2023/08/21 06:59:54;;;;;;;2.30;1.90;;;24.80;99.90;;;;;;4906036;29;20971;-49
2023/08/21 07:02:20;;;;;;;2.33;2.13;;;24.80;99.90;;;;;;4905179;29;21030;-47
2023/08/21 07:04:48;;;;;;;2.17;1.97;;;24.80;99.90;;;;;;4906635;29;20490;-48
2023/08/21 07:07:15;;;;;;;2.43;2.23;;;24.80;99.90;;;;;;4903286;29;20468;-47
2023/08/21 07:09:42;;;;;;;2.00;1.80;;;24.80;99.90;;;;;;4904452;29;20474;-50
2023/08/21 07:12:09;;;;;;;1.97;1.87;;;24.80;99.90;;;;;;4903694;29;20464;-50
2023/08/21 07:14:35;;;;;;;3.33;1.97;;;24.80;99.90;;;;;;4902133;29;20479;-49
2023/08/21 07:17:02;;;;;;;2.63;1.50;;;24.80;99.90;;;;;;4906575;29;20471;-49
2023/08/21 07:19:29;;;;;;;3.53;2.40;;;24.80;99.90;;;;;;4905748;29;20507;-51
2023/08/21 07:21:57;;;;;;;4.83;1.90;;;24.80;99.90;;;;;;4907742;29;20450;-49
2023/08/21 07:24:23;;;;;;;2.80;2.17;;;24.80;99.90;;;;;;4910879;29;20997;-50
2023/08/21 07:26:50;;;;;;;3.13;2.00;;;24.80;99.90;;;;;;4912389;29;20463;-49
2023/08/21 07:29:17;;;;;;;2.70;1.27;;;24.70;99.90;;;;;;4908884;29;20458;-50
2023/08/21 07:31:44;;;;;;;3.37;2.17;;;24.70;99.90;;;;;;4909144;29;20474;-49
2023/08/21 07:34:10;;;;;;;3.37;1.70;;;24.70;99.90;;;;;;4906998;29;20491;-51
2023/08/21 07:36:37;;;;;;;5.40;2.47;;;24.70;99.90;;;;;;4900904;29;21168;-50
2023/08/21 07:39:05;;;;;;;2.90;1.93;;;24.60;99.90;;;;;;4905846;29;20456;-48
2023/08/21 07:41:32;;;;;;;7.10;1.80;;;24.60;99.90;;;;;;4905653;29;21143;-49
2023/08/21 07:43:58;;;;;;;4.70;2.27;;;24.60;99.90;;;;;;4909309;29;21040;-51
2023/08/21 07:46:25;;;;;;;4.00;1.60;;;24.60;99.90;;;;;;4905984;29;20470;-50
2023/08/21 07:48:53;;;;;;;9.43;2.27;;;24.60;99.90;;;;;;4904869;29;20483;-52
2023/08/21 07:51:20;;;;;;;6.53;2.37;;;24.60;99.90;;;;;;4901664;29;20467;-53
2023/08/21 07:53:46;;;;;;;3.43;1.93;;;24.60;99.90;;;;;;4907002;29;20633;-48
2023/08/21 07:56:14;;;;;;;4.60;1.50;;;24.60;99.90;;;;;;4903987;29;20954;-48
2023/08/21 07:58:41;;;;;;;8.23;2.47;;;24.60;99.90;;;;;;4903721;29;22699;-50
2023/08/21 08:01:08;;;;;;;10.13;2.20;;;24.60;99.90;;;;;;4904010;29;20452;-47
2023/08/21 08:03:34;;;;;;;5.30;1.70;;;24.60;99.90;;;;;;4913438;29;20525;-50
2023/08/21 08:06:01;;;;;;;6.20;2.30;;;24.60;99.90;;;;;;4912119;29;20466;-49
2023/08/21 08:08:29;;;;;;;8.13;2.13;;;24.50;99.90;;;;;;4902837;29;20468;-48
2023/08/21 08:10:55;;;;;;;21.47;2.40;;;24.60;99.90;;;;;;4903106;29;21090;-51
2023/08/21 08:13:23;;;;;;;5.43;1.70;;;24.60;99.90;;;;;;4907682;29;20486;-51
2023/08/21 08:15:50;;;;;;;5.63;1.60;;;24.60;99.90;;;;;;4901842;29;20467;-47
2023/08/21 08:18:17;;;;;;;6.57;2.23;;;24.60;99.90;;;;;;4904375;29;20475;-48
2023/08/21 08:20:43;;;;;;;4.47;1.60;;;24.60;99.90;;;;;;4902941;29;21656;-48
2023/08/21 08:23:10;;;;;;;5.67;2.40;;;24.60;99.90;;;;;;4905784;29;20470;-51
2023/08/21 08:25:37;;;;;;;4.10;2.07;;;24.60;99.90;;;;;;4898419;29;20482;-51
2023/08/21 08:28:04;;;;;;;5.43;2.03;;;24.60;99.90;;;;;;4900814;29;21155;-50
2023/08/21 08:30:32;;;;;;;6.30;1.90;;;24.60;99.90;;;;;;4902323;29;21001;-46
2023/08/21 08:32:59;;;;;;;4.10;1.60;;;24.60;99.90;;;;;;4904366;29;20479;-47
2023/08/21 08:35:25;;;;;;;4.47;2.33;;;24.60;99.90;;;;;;4901197;29;20477;-46
2023/08/21 08:37:52;;;;;;;5.07;1.60;;;24.60;99.90;;;;;;4899925;29;20471;-50
2023/08/21 08:40:19;;;;;;;6.90;2.93;;;24.60;99.90;;;;;;4897660;29;20476;-47
2023/08/21 08:42:46;;;;;;;5.53;1.93;;;24.60;99.90;;;;;;4900005;29;20471;-49
2023/08/21 08:45:15;;;;;;;34.70;3.73;;;24.60;99.90;;;;;;4898458;29;20972;-49
2023/08/21 08:47:43;;;;;;;8.67;2.73;;;24.60;99.90;;;;;;4901378;29;20486;-49
2023/08/21 08:50:10;;;;;;;9.43;2.50;;;24.60;99.90;;;;;;4906039;29;20601;-48
2023/08/21 08:52:38;;;;;;;7.90;1.97;;;24.60;99.90;;;;;;4900664;29;20460;-50
2023/08/21 08:55:06;;;;;;;10.97;2.67;;;24.60;99.90;;;;;;4904381;29;20475;-47
2023/08/21 08:57:33;;;;;;;4.43;1.90;;;24.60;99.90;;;;;;4904954;29;21241;-48
2023/08/21 09:00:00;;;;;;;4.73;2.03;;;24.60;99.90;;;;;;4904722;29;20551;-47
2023/08/21 09:02:27;;;;;;;7.03;2.33;;;24.60;99.90;;;;;;4906978;29;20459;-48
2023/08/21 09:04:55;;;;;;;8.43;2.50;;;24.60;99.90;;;;;;4906915;29;20475;-49
2023/08/21 09:07:22;;;;;;;6.77;2.23;;;24.60;99.90;;;;;;4909471;29;20811;-49
2023/08/21 09:09:52;;;;;;;3.70;1.50;;;24.60;99.90;;;;;;4909520;29;20455;-50
2023/08/21 09:12:19;;;;;;;5.70;1.80;;;24.60;99.90;;;;;;4910296;29;20470;-47
2023/08/21 09:14:46;;;;;;;3.80;1.67;;;24.60;99.90;;;;;;4907020;29;20485;-49
2023/08/21 09:17:13;;;;;;;3.63;2.03;;;24.60;99.90;;;;;;4903218;29;22324;-52
2023/08/21 09:19:40;;;;;;;2.90;1.30;;;24.60;99.90;;;;;;4906671;29;20796;-47
2023/08/21 09:22:13;;;;;;;3.00;1.93;;;24.60;99.90;;;;;;4907328;29;20457;-51
2023/08/21 09:24:40;;;;;;;5.10;2.10;;;24.60;99.90;;;;;;4909672;29;20464;-50
2023/08/21 09:27:16;;;;;;;6.17;2.00;;;24.60;99.90;;;;;;4903102;29;20477;-46
2023/08/21 09:29:43;;;;;;;1.87;1.57;;;24.60;99.90;;;;;;4910964;29;20470;-50
2023/08/21 09:32:10;;;;;;;3.30;2.00;;;24.60;99.90;;;;;;4905435;29;20463;-51
2023/08/21 09:34:38;;;;;;;3.13;1.87;;;24.60;99.90;;;;;;4907678;29;20522;-48
2023/08/21 09:37:08;;;;;;;4.03;2.00;;;24.60;99.90;;;;;;4910424;29;20463;-50
2023/08/21 09:39:38;;;;;;;4.77;2.27;;;24.60;99.90;;;;;;4907607;29;20458;-57
2023/08/21 09:42:06;;;;;;;2.90;2.00;;;24.60;99.90;;;;;;4905817;29;20994;-55
2023/08/21 09:44:37;;;;;;;3.13;2.20;;;24.60;99.90;;;;;;4911100;29;20489;-56
2023/08/21 09:47:08;;;;;;;3.27;1.80;;;24.60;99.90;;;;;;4908976;29;20964;-57
2023/08/21 09:49:36;;;;;;;3.93;2.13;;;24.60;99.90;;;;;;4914313;29;20902;-55
2023/08/21 09:52:05;;;;;;;2.63;1.73;;;24.60;99.90;;;;;;4907783;29;21050;-56
2023/08/21 09:54:32;;;;;;;4.73;2.13;;;24.60;99.90;;;;;;4905644;29;21114;-55
2023/08/21 09:57:03;;;;;;;2.43;1.83;;;24.70;99.90;;;;;;4910554;29;20455;-54
2023/08/21 09:59:31;;;;;;;3.77;2.07;;;24.70;99.90;;;;;;4905998;29;20646;-56
2023/08/21 10:02:00;;;;;;;1.87;1.60;;;24.70;99.90;;;;;;4903324;29;20873;-58
2023/08/21 10:04:29;;;;;;;1.93;1.37;;;24.70;99.90;;;;;;4905137;29;20490;-48
2023/08/21 10:06:57;;;;;;;6.33;2.13;;;24.80;99.90;;;;;;4907687;29;20586;-51
2023/08/21 10:09:25;;;;;;;2.40;1.70;;;24.80;99.90;;;;;;4907645;29;20463;-53
2023/08/21 10:11:54;;;;;;;3.37;2.23;;;24.80;99.90;;;;;;4909423;29;20499;-59
2023/08/21 10:14:24;;;;;;;3.07;1.80;;;24.80;99.90;;;;;;4909500;29;20514;-58
2023/08/21 10:16:52;;;;;;;8.47;2.33;;;24.80;99.90;;;;;;4910285;29;20470;-56
2023/08/21 10:19:19;;;;;;;4.30;2.27;;;24.90;99.90;;;;;;4911539;29;20475;-60
2023/08/21 10:21:48;;;;;;;4.03;2.40;;;24.90;99.90;;;;;;4902940;29;20558;-59
2023/08/21 10:24:27;;;;;;;2.67;2.20;;;24.90;99.90;;;;;;4912050;29;20508;-49
2023/08/21 10:26:54;;;;;;;3.27;1.77;;;25.00;99.90;;;;;;4909267;29;21168;-54
2023/08/21 10:29:21;;;;;;;2.17;1.80;;;25.00;99.90;;;;;;4908492;29;20549;-56
2023/08/21 10:31:59;;;;;;;2.63;2.43;;;25.00;99.90;;;;;;4905438;29;20463;-58
2023/08/21 10:34:33;;;;;;;4.20;2.57;;;25.00;99.90;;;;;;4904724;29;20892;-56
2023/08/21 10:37:13;;;;;;;3.50;2.10;;;25.10;99.90;;;;;;4904589;29;20982;-44
2023/08/21 10:39:42;;;;;;;3.30;2.03;;;25.10;99.90;;;;;;4905503;29;20474;-46
2023/08/21 10:42:13;;;;;;;3.70;2.10;;;25.10;99.90;;;;;;4905642;29;20459;-55
2023/08/21 10:44:52;;;;;;;2.90;1.93;;;25.10;99.90;;;;;;4907625;29;20477;-57
2023/08/21 10:47:22;;;;;;;2.90;1.77;;;25.10;99.90;;;;;;4904109;29;20479;-52
2023/08/21 10:49:52;;;;;;;2.57;1.80;;;25.20;99.90;;;;;;4905511;29;20468;-58
2023/08/21 10:52:23;;;;;;;2.83;1.90;;;25.20;99.90;;;;;;4907709;29;20474;-58
2023/08/21 10:54:51;;;;;;;3.67;2.13;;;25.20;99.90;;;;;;4905766;29;20875;-55
2023/08/21 10:57:18;;;;;;;4.07;1.97;;;25.20;99.90;;;;;;4907622;29;20468;-51
2023/08/21 11:00:09;;;;;;;2.67;1.97;;;25.30;99.90;;;;;;4906423;29;20478;-51
2023/08/21 11:02:38;;;;;;;6.60;1.97;;;25.30;99.90;;;;;;4901335;29;20808;-50
2023/08/21 11:05:07;;;;;;;3.07;2.23;;;25.30;99.90;;;;;;4905899;29;20482;-51
2023/08/21 11:07:38;;;;;;;3.27;1.80;;;25.30;99.90;;;;;;4910274;29;21115;-51
2023/08/21 11:10:07;;;;;;;3.90;2.37;;;25.30;99.90;;;;;;4907904;29;20467;-50
2023/08/21 11:12:33;;;;;;;5.07;1.90;;;25.30;99.90;;;;;;4909980;29;20471;-50
2023/08/21 11:15:00;;;;;;;1.87;1.77;;;25.30;99.90;;;;;;4907899;29;20486;-52
2023/08/21 11:17:27;;;;;;;2.97;2.30;;;25.30;99.90;;;;;;4911402;29;20455;-50
2023/08/21 11:19:55;;;;;;;2.07;1.90;;;25.30;99.90;;;;;;4909344;29;20614;-55
2023/08/21 11:22:29;;;;;;;4.80;2.23;;;25.30;99.90;;;;;;4910361;29;20467;-51
2023/08/21 11:24:56;;;;;;;3.00;1.73;;;25.40;99.90;;;;;;4909971;29;20470;-51
2023/08/21 11:27:22;;;;;;;2.50;1.97;;;25.40;99.90;;;;;;4913344;29;20935;-49
2023/08/21 11:29:51;;;;;;;2.03;1.80;;;25.40;99.90;;;;;;4906952;29;20498;-57
2023/08/21 11:32:20;;;;;;;2.87;1.70;;;25.40;99.90;;;;;;4905593;29;20467;-56
2023/08/21 11:34:50;;;;;;;2.73;1.63;;;25.40;99.90;;;;;;4907375;29;20487;-57
2023/08/21 11:37:19;;;;;;;2.53;1.93;;;25.40;99.90;;;;;;4907593;29;20466;-57
2023/08/21 11:39:48;;;;;;;3.30;2.27;;;25.40;99.90;;;;;;4907511;29;20534;-52
2023/08/21 11:42:15;;;;;;;3.00;1.97;;;25.40;99.90;;;;;;4904550;29;20919;-51
2023/08/21 11:44:47;;;;;;;2.20;1.97;;;25.40;99.90;;;;;;4906545;29;20475;-45
2023/08/21 11:47:15;;;;;;;2.13;1.80;;;25.50;99.90;;;;;;4907868;29;21078;-48
2023/08/21 11:49:43;;;;;;;4.70;1.77;;;25.50;99.90;;;;;;4901169;29;21460;-46
2023/08/21 11:52:11;;;;;;;2.20;1.83;;;25.50;99.90;;;;;;4902540;29;20467;-47
2023/08/21 11:54:40;;;;;;;3.37;1.60;;;25.50;99.90;;;;;;4905498;29;20482;-49
2023/08/21 11:57:09;;;;;;;3.47;1.67;;;25.50;99.90;;;;;;4904242;29;20464;-51
2023/08/21 11:59:36;;;;;;;3.13;1.60;;;25.50;99.90;;;;;;4909206;29;20859;-49
2023/08/21 12:02:10;;;;;;;2.37;1.57;;;25.50;99.90;;;;;;4907056;29;20542;-46
2023/08/21 12:04:37;;;;;;;1.83;1.73;;;25.50;99.90;;;;;;4909580;29;20466;-50
2023/08/21 12:07:04;;;;;;;1.97;1.57;;;25.50;99.90;;;;;;4910475;29;20478;-54
2023/08/21 12:09:31;;;;;;;3.40;2.00;;;25.50;99.90;;;;;;4911377;29;20451;-52
2023/08/21 12:11:59;;;;;;;2.37;1.70;;;25.50;99.90;;;;;;4911505;29;20494;-54
2023/08/21 12:14:25;;;;;;;3.73;1.90;;;25.60;99.90;;;;;;4906711;29;20514;-58
2023/08/21 12:16:52;;;;;;;3.03;1.57;;;25.60;99.90;;;;;;4909053;29;20485;-48
2023/08/21 12:19:19;;;;;;;3.23;1.60;;;25.60;99.90;;;;;;4898771;29;20502;-52
2023/08/21 12:21:46;;;;;;;3.50;2.00;;;25.60;99.90;;;;;;4893889;29;20973;-51
2023/08/21 12:24:13;;;;;;;2.43;1.77;;;25.60;99.90;;;;;;4898265;29;20471;-50
2023/08/21 12:26:39;;;;;;;1.90;1.80;;;25.60;99.90;;;;;;4901583;29;21011;-51
2023/08/21 12:29:07;;;;;;;2.53;2.23;;;25.60;99.90;;;;;;4903146;29;20466;-56
2023/08/21 12:31:34;;;;;;;2.27;1.50;;;25.60;99.90;;;;;;4906507;29;20810;-54
2023/08/21 12:34:03;;;;;;;2.70;2.13;;;25.60;99.90;;;;;;4906615;29;20483;-56
2023/08/21 12:36:30;;;;;;;3.87;2.13;;;25.60;99.90;;;;;;4903217;29;20460;-52
2023/08/21 12:38:56;;;;;;;3.20;2.10;;;25.60;99.90;;;;;;4913541;29;20523;-49
2023/08/21 12:41:23;;;;;;;7.07;2.43;;;25.70;99.90;;;;;;4904453;29;20475;-48
2023/08/21 12:43:50;;;;;;;3.10;1.70;;;25.70;99.90;;;;;;4908616;29;20469;-48
2023/08/21 12:46:18;;;;;;;5.93;2.40;;;25.70;99.90;;;;;;4911282;29;20549;-48
2023/08/21 12:48:44;;;;;;;4.30;1.80;;;25.70;99.90;;;;;;4910324;29;20475;-47